Pitts, Georgia
Current Conditions -  °F | °C
As of 2:55 PM on Sunday 23 Nov 2014 (Local Time) from KCKF Reporting Station
Overcast Overcast  
Wind Chill: 73°   Ceiling: 1200
Heat Index: 73°   Visibility: 10mi
Dew Point: 70°   Wind: 7mph
Humidity: 91%   Direction: 160°SSE
Pressure: 29.77"   Gusts: NA
Location:  31.94°N, 83.54°W
Report Text: KCKF 231955Z AUTO 16006KT 10SM OVC012 23/21 A2977 RMK AO2 T02250209
Loading
Personal Weather Stations






























Interactive Weather Map New forecast layout! Learn more

10-Day Weather Forecast

Advertisements
Track Severe Weather on mobile